METAR for:KPVW (Plainview/Hale Cnty, TX, US)
Text:KPVW 141115Z AUTO 21007KT 10SM CLR 20/16 A3018 RMK AO2 T02040163
Conditions at:1115 UTC 14 Jul 2024
Temperature: 20.4°C ( 69°F)
Dewpoint: 16.3°C ( 61°F) [RH = 77%]
Pressure (altimeter):30.18 inches Hg (1022.1 mb)
Winds:from the SSW (210 degrees) at 8 MPH (7 knots; 3.6 m/s)
Visibility:10 or more sm (16+ km)
Ceiling:at least 12,000 feet AGL
Clouds:sky clear below 12,000 feet AGL
QC Flag:automated observation with no human augmentation
TAF for:KPVW (Plainview/Hale Cnty, TX, US) issued at 1120 UTC 14 Jul 2024
Text:KPVW 141120Z 1412/1512 22011KT P6SM SKC
Forecast period:1200 to 1500 UTC 14 July 2024
Forecast type:FROM: standard forecast or significant change
Winds:from the SW (220 degrees) at 13 MPH (11 knots; 5.7 m/s)
Visibility:6 or more sm (10+ km)
Ceiling:at least 12,000 feet AGL
Clouds:clear skies
Text:FM141500 21015KT P6SM SKC
Forecast period:1500 UTC 14 July 2024 to 0100 UTC 15 July 2024
Forecast type:FROM: standard forecast or significant change
Winds:from the SSW (210 degrees) at 17 MPH (15 knots; 7.7 m/s)
Visibility:6 or more sm (10+ km)
Ceiling:at least 12,000 feet AGL
Clouds:clear skies
Text:FM150100 17011KT P6SM SKC
Forecast period:0100 to 1200 UTC 15 July 2024
Forecast type:FROM: standard forecast or significant change
Winds:from the S (170 degrees) at 13 MPH (11 knots; 5.7 m/s)
Visibility:6 or more sm (10+ km)
Ceiling:at least 12,000 feet AGL
Clouds:clear skies